PWT weather

Bremerton National Airport
Bremerton, Washington, United States

Public forecast

Using degrees Fahrenheit for public forecast. Weather courtesy of forecast.io.

Current aviation weather report (METAR) for Bremerton National Airport

Retrieved 2020/08/03 08:56 UTC (12 minutes ago):

KPWT 030856Z AUTO 00000KT 10SM CLR 14/12 A3012 RMK AO2 SLP201 6//// T01390122 53006

Aviation forecast (TAF) for Bremerton National Airport

Retrieved 2020/08/03 06:24 UTC (3 hours ago):

TAF KPWT 030522Z 0306/0406 00000KT P6SM FEW050 BKN100 FM030900 18006KT P6SM BKN020 BKN050 FM031200 18006KT P6SM OVC015 TEMPO 0312/0316 3SM -DZ BR OVC010 FM032100 VRB04KT P6SM SCT025 BKN040